Time;durP1;ratioP1;P1;durP2;ratioP2;P2;SDS_P1;SDS_P2;PMS_P1;PMS_P2;Temp;Humidity;BMP_temperature;BMP_pressure;BME280_temperature;BME280_humidity;BME280_pressure;Samples;Min_cycle;Max_cycle;Signal;HPM_P1;HPM_P2
2024/04/16 00:01:42;;;;;;;1.93;0.50;;;;;;;10.86;54.60;94021.66;6115814;23;20172;-87
2024/04/16 00:04:21;;;;;;;0.40;0.40;;;;;;;10.74;54.58;93995.88;6125571;23;20203;-87
2024/04/16 00:06:59;;;;;;;0.50;0.50;;;;;;;10.69;55.13;94027.41;6127408;23;20230;-86
2024/04/16 00:09:27;;;;;;;0.40;0.40;;;;;;;10.64;54.24;93973.22;6128171;23;20183;-87
2024/04/16 00:18:18;;;;;;;0.30;0.30;;;;;;;10.47;54.13;93949.06;6063587;23;20212;-87
2024/04/16 00:20:49;;;;;;;0.30;0.30;;;;;;;10.44;54.25;93966.72;6127474;23;20171;-87
2024/04/16 00:23:36;;;;;;;0.40;0.40;;;;;;;10.58;54.02;93956.06;6126123;23;20230;-86
2024/04/16 00:26:19;;;;;;;0.77;0.50;;;;;;;10.69;53.87;93949.41;6127246;23;20163;-87
2024/04/16 00:28:57;;;;;;;0.90;0.50;;;;;;;10.76;54.12;93968.13;6126378;23;20691;-87
2024/04/16 00:31:38;;;;;;;0.40;0.40;;;;;;;10.64;54.46;93969.84;6100009;23;20195;-86
2024/04/16 00:34:20;;;;;;;0.40;0.40;;;;;;;10.60;54.91;94013.25;6126362;23;20191;-86
2024/04/16 00:37:23;;;;;;;0.40;0.40;;;;;;;10.74;54.57;93977.84;6126755;23;20170;-86
2024/04/16 00:43:50;;;;;;;;;;;;;;;;;;;;;
2024/04/16 00:49:56;;;;;;;2.87;0.50;;;;;;;10.30;57.23;94076.69;6103742;23;20175;-87
2024/04/16 00:52:48;;;;;;;0.60;0.47;;;;;;;10.47;56.03;94030.63;6126817;23;20231;-86
2024/04/16 00:55:17;;;;;;;0.43;0.40;;;;;;;10.21;56.42;94022.16;6125739;23;20203;-86
2024/04/16 00:58:02;;;;;;;0.33;0.33;;;;;;;10.26;56.20;94032.59;6126324;23;20228;-88
2024/04/16 01:00:53;;;;;;;0.40;0.30;;;;;;;10.27;56.61;94064.25;6126968;23;20211;-89
2024/04/16 01:03:43;;;;;;;1.17;0.40;;;;;;;10.22;56.37;94043.50;6126469;23;20190;-85
2024/04/16 01:06:25;;;;;;;0.50;0.40;;;;;;;10.11;56.68;94051.91;6124785;23;20670;-86
2024/04/16 01:09:23;;;;;;;;;;;;;;;;;;;;;
2024/04/16 01:12:19;;;;;;;0.40;0.40;;;;;;;9.91;57.58;94093.19;6125508;23;20535;-85
2024/04/16 01:14:54;;;;;;;0.40;0.40;;;;;;;9.89;57.48;94093.38;6125822;23;20191;-86
2024/04/16 01:17:38;;;;;;;0.43;0.43;;;;;;;10.00;57.51;94086.81;6127816;23;20162;-86
2024/04/16 01:23:25;;;;;;;0.30;0.30;;;;;;;9.93;57.62;94106.63;6125119;23;20255;-88
2024/04/16 01:25:51;;;;;;;0.40;0.40;;;;;;;9.88;58.24;94114.94;6128201;23;20476;-86
2024/04/16 01:31:28;;;;;;;0.30;0.30;;;;;;;9.82;57.75;94127.84;6124104;23;20191;-88
2024/04/16 01:34:27;;;;;;;0.93;0.40;;;;;;;9.81;58.17;94154.56;6127546;23;20202;-88
2024/04/16 01:37:07;;;;;;;0.40;0.40;;;;;;;9.88;58.38;94158.66;6127217;23;20179;-89
2024/04/16 01:39:53;;;;;;;0.40;0.40;;;;;;;9.87;58.99;94194.84;6128435;23;20156;-87
2024/04/16 01:42:51;;;;;;;0.40;0.40;;;;;;;9.89;59.96;94219.34;6127634;23;20638;-88
2024/04/16 01:45:53;;;;;;;1.33;0.40;;;;;;;9.95;59.55;94230.59;6127306;23;20238;-88
2024/04/16 01:51:28;;;;;;;0.63;0.43;;;;;;;9.82;60.30;94254.56;6107176;23;20199;-88
2024/04/16 01:54:03;;;;;;;;;;;;;;;;;;;;;
2024/04/16 01:56:35;;;;;;;0.53;0.40;;;;;;;9.90;60.74;94272.34;6124958;23;20267;-89
2024/04/16 01:59:02;;;;;;;0.50;0.40;;;;;;;9.90;60.91;94272.34;6127447;23;20242;-87
2024/04/16 02:01:38;;;;;;;0.83;0.60;;;;;;;9.92;61.05;94279.84;6126544;23;20178;-87
2024/04/16 02:04:03;;;;;;;0.73;0.60;;;;;;;9.73;61.61;94291.78;6127852;23;20206;-90
2024/04/16 02:06:38;;;;;;;0.90;0.60;;;;;;;9.68;62.33;94351.50;6126746;23;20175;-87
2024/04/16 02:09:13;;;;;;;0.50;0.50;;;;;;;9.64;62.32;94339.25;6127992;23;20163;-86
2024/04/16 02:11:44;;;;;;;0.67;0.60;;;;;;;9.46;63.75;94390.44;6126888;23;20693;-86
2024/04/16 02:14:15;;;;;;;0.50;0.50;;;;;;;9.51;62.80;94363.19;6128373;23;20200;-86
2024/04/16 02:17:13;;;;;;;0.70;0.50;;;;;;;9.54;62.70;94342.25;6127062;23;20696;-86
2024/04/16 02:19:44;;;;;;;1.33;0.60;;;;;;;9.61;62.39;94352.50;6128636;23;20179;-86
2024/04/16 02:22:13;;;;;;;1.17;0.50;;;;;;;9.67;63.07;94357.63;6127212;23;20167;-89
2024/04/16 02:24:39;;;;;;;0.50;0.50;;;;;;;9.65;63.11;94376.78;6127331;23;20206;-88
2024/04/16 02:27:11;;;;;;;0.73;0.60;;;;;;;9.66;62.96;94368.09;6126111;23;20215;-86
2024/04/16 02:29:45;;;;;;;0.70;0.70;;;;;;;9.63;62.91;94371.06;6126312;23;20156;-86
2024/04/16 02:32:31;;;;;;;0.77;0.50;;;;;;;9.68;63.31;94377.19;6127519;23;20175;-87
2024/04/16 02:36:08;;;;;;;1.37;0.50;;;;;;;9.76;62.76;94357.41;6126927;23;20195;-87
2024/04/16 02:38:45;;;;;;;0.73;0.70;;;;;;;9.63;62.86;94363.34;6117614;23;20252;-87
2024/04/16 02:41:10;;;;;;;0.90;0.70;;;;;;;9.41;62.22;94326.84;6125794;23;20160;-85
2024/04/16 02:43:53;;;;;;;1.23;0.80;;;;;;;9.23;62.66;94342.88;6125613;23;20210;-86
2024/04/16 02:46:45;;;;;;;2.97;0.90;;;;;;;9.00;63.11;94378.41;6126099;23;20182;-86
2024/04/16 02:49:37;;;;;;;2.43;0.70;;;;;;;9.03;63.05;94405.47;6122255;23;20176;-86
2024/04/16 02:52:12;;;;;;;0.63;0.63;;;;;;;8.83;63.26;94393.41;6115969;23;20204;-87
2024/04/16 02:54:52;;;;;;;0.60;0.60;;;;;;;8.78;64.10;94413.72;6130291;23;20202;-87
2024/04/16 02:57:25;;;;;;;1.60;0.83;;;;;;;8.89;65.21;94461.09;6129649;23;20369;-87
2024/04/16 03:00:27;;;;;;;0.90;0.70;;;;;;;8.95;64.99;94470.59;6129884;23;20175;-88
2024/04/16 03:03:09;;;;;;;1.03;0.80;;;;;;;8.84;65.38;94474.53;6129890;23;20230;-88
2024/04/16 03:05:43;;;;;;;2.77;0.90;;;;;;;8.70;65.39;94477.22;6129180;23;20171;-88
2024/04/16 03:08:26;;;;;;;2.90;1.00;;;;;;;8.75;65.69;94497.97;6130050;23;20191;-86
2024/04/16 03:10:56;;;;;;;1.90;0.90;;;;;;;8.78;65.91;94513.78;6129290;23;20588;-87
2024/04/16 03:13:33;;;;;;;1.80;0.90;;;;;;;8.84;66.39;94537.91;6129769;23;20635;-87
2024/04/16 03:16:08;;;;;;;1.27;0.70;;;;;;;8.63;66.01;94513.16;6128795;23;20225;-90
2024/04/16 03:19:01;;;;;;;1.80;0.83;;;;;;;8.52;66.06;94509.31;6128536;23;20652;-86
2024/04/16 03:21:30;;;;;;;2.30;1.03;;;;;;;8.47;66.76;94531.38;6129002;23;20646;-88
2024/04/16 03:23:56;;;;;;;2.37;0.87;;;;;;;8.51;67.11;94530.84;6128212;23;20251;-88
2024/04/16 03:26:31;;;;;;;4.37;1.10;;;;;;;8.41;67.44;94553.47;6127459;23;20182;-87
2024/04/16 03:29:00;;;;;;;1.80;0.87;;;;;;;8.45;67.26;94553.91;6128083;23;20193;-87
2024/04/16 03:31:30;;;;;;;4.63;0.90;;;;;;;8.40;67.85;94572.41;6127139;23;20246;-87
2024/04/16 03:34:04;;;;;;;3.27;0.73;;;;;;;8.29;67.94;94578.81;6126962;23;20210;-87
2024/04/16 03:36:39;;;;;;;1.10;0.80;;;;;;;8.39;68.24;94593.09;6129556;23;20179;-86
2024/04/16 03:39:06;;;;;;;2.73;1.00;;;;;;;8.42;67.67;94580.72;6128790;23;20164;-87
2024/04/16 03:41:49;;;;;;;3.90;1.10;;;;;;;8.38;67.62;94573.56;6126993;23;20171;-87
2024/04/16 03:44:30;;;;;;;;;;;;;;;;;;;;;
2024/04/16 03:47:15;;;;;;;2.77;1.20;;;;;;;8.43;67.76;94584.06;6122001;23;20251;-88
2024/04/16 03:49:41;;;;;;;1.60;1.00;;;;;;;8.42;68.67;94603.78;6100524;23;20254;-87
2024/04/16 03:52:17;;;;;;;1.93;1.00;;;;;;;8.44;67.64;94573.63;6126677;23;20202;-87
2024/04/16 03:54:45;;;;;;;1.70;0.90;;;;;;;8.48;67.51;94568.88;6125737;23;20198;-88
2024/04/16 03:57:26;;;;;;;0.97;0.80;;;;;;;8.40;67.88;94585.22;6126152;23;20734;-87
2024/04/16 04:03:23;;;;;;;1.63;0.80;;;;;;;8.22;68.37;94590.78;6066012;23;20198;-89
2024/04/16 04:06:10;;;;;;;3.03;1.20;;;;;;;8.33;69.09;94620.28;6127255;23;20227;-88
2024/04/16 04:08:35;;;;;;;0.60;0.60;;;;;;;8.36;68.60;94612.22;6127898;23;20159;-87
2024/04/16 04:11:08;;;;;;;1.57;0.80;;;;;;;8.37;68.47;94616.38;6126844;23;20257;-86
2024/04/16 04:13:37;;;;;;;2.37;1.07;;;;;;;8.38;68.47;94617.16;6126439;23;20202;-88
2024/04/16 04:16:24;;;;;;;1.00;0.70;;;;;;;8.39;69.30;94634.16;6125638;23;20539;-86
2024/04/16 04:19:16;;;;;;;1.37;0.93;;;;;;;8.52;69.31;94644.50;6127817;23;20187;-87
2024/04/16 04:21:43;;;;;;;0.97;0.70;;;;;;;8.54;68.83;94622.00;6129555;23;20176;-88
2024/04/16 04:24:41;;;;;;;1.67;0.80;;;;;;;8.49;68.94;94616.63;6130582;23;20199;-86
2024/04/16 04:27:13;;;;;;;1.70;1.00;;;;;;;8.44;69.32;94636.94;6130629;23;20187;-87
2024/04/16 04:29:41;;;;;;;0.97;0.80;;;;;;;8.41;68.76;94604.78;6130480;23;20179;-87
2024/04/16 04:32:08;;;;;;;0.70;0.70;;;;;;;8.28;68.39;94589.25;6131051;23;20238;-86
2024/04/16 04:34:42;;;;;;;2.07;0.87;;;;;;;8.37;68.32;94592.50;6130288;23;20667;-88
2024/04/16 04:37:10;;;;;;;2.23;1.00;;;;;;;8.31;68.82;94602.50;6129257;23;20185;-87
2024/04/16 04:39:44;;;;;;;1.80;0.90;;;;;;;8.08;68.70;94611.41;6130100;23;20222;-88
2024/04/16 04:42:37;;;;;;;1.20;0.80;;;;;;;8.07;68.88;94623.41;6129636;23;20179;-88
2024/04/16 04:45:28;;;;;;;1.83;0.93;;;;;;;8.00;69.55;94637.94;6124733;23;20437;-87
2024/04/16 04:48:02;;;;;;;1.80;0.87;;;;;;;8.02;69.45;94627.50;6130390;23;20163;-87
2024/04/16 04:50:40;;;;;;;0.93;0.80;;;;;;;8.05;69.75;94630.50;6129160;23;20230;-87
2024/04/16 04:53:30;;;;;;;2.07;0.80;;;;;;;7.96;69.56;94632.38;6089524;23;20215;-86
2024/04/16 04:56:36;;;;;;;1.27;0.80;;;;;;;7.82;69.59;94648.63;6101853;23;20515;-87
2024/04/16 04:59:21;;;;;;;;;;;;;;;;;;;;;
2024/04/16 05:05:30;;;;;;;1.20;0.83;;;;;;;7.57;71.91;94691.69;6068786;23;20195;-87
2024/04/16 05:08:48;;;;;;;1.87;0.80;;;;;;;7.70;71.79;94721.03;5926838;24;20231;-86
2024/04/16 05:11:32;;;;;;;1.07;0.83;;;;;;;7.75;71.25;94690.50;5948115;24;20224;-89
2024/04/16 05:14:13;;;;;;;1.27;0.83;;;;;;;7.79;70.98;94684.84;6082160;23;20200;-87
2024/04/16 05:17:25;;;;;;;;;;;;;;;;;;;;;
2024/04/16 05:19:51;;;;;;;1.17;0.90;;;;;;;7.88;71.25;94701.72;5983279;24;20179;-85
2024/04/16 05:22:31;;;;;;;4.43;1.00;;;;;;;7.76;72.11;94721.06;6060473;23;20259;-87
2024/04/16 05:26:43;;;;;;;;;;;;;;;;;;;;;
2024/04/16 05:32:08;;;;;;;3.80;1.20;;;;;;;7.83;72.03;94723.72;6060677;23;20206;-88
2024/04/16 05:34:33;;;;;;;1.10;1.00;;;;;;;7.64;71.77;94704.59;6101141;23;20219;-87
2024/04/16 05:37:03;;;;;;;1.70;1.13;;;;;;;7.60;73.53;94765.63;6100546;23;20176;-87
2024/04/16 05:39:29;;;;;;;8.40;6.07;;;;;;;7.83;73.43;94755.25;6100925;23;20186;-88
2024/04/16 05:47:43;;;;;;;0.93;0.87;;;;;;;8.06;71.53;94714.13;6077514;23;20203;-87
2024/04/16 05:50:15;;;;;;;0.73;0.70;;;;;;;8.11;71.81;94713.53;6100640;23;20199;-86
2024/04/16 05:53:06;;;;;;;0.70;0.70;;;;;;;8.09;71.33;94703.47;6087657;23;20200;-86
2024/04/16 05:56:03;;;;;;;1.07;0.80;;;;;;;8.18;71.89;94735.72;6100475;23;20196;-88
2024/04/16 05:58:48;;;;;;;1.80;0.70;;;;;;;8.24;72.49;94745.25;5996200;23;20176;-89
2024/04/16 06:01:40;;;;;;;0.83;0.60;;;;;;;8.21;70.82;94684.06;6101087;23;20176;-86
2024/04/16 06:04:16;;;;;;;0.63;0.63;;;;;;;8.25;71.20;94717.84;6099481;23;20279;-89
2024/04/16 06:06:45;;;;;;;1.40;0.63;;;;;;;8.27;70.62;94708.97;6099760;23;20656;-88
2024/04/16 06:09:21;;;;;;;1.37;0.73;;;;;;;8.26;71.15;94711.75;6099357;23;20180;-88
2024/04/16 06:15:02;;;;;;;0.67;0.60;;;;;;;8.31;70.52;94697.38;6097176;23;20195;-86
2024/04/16 06:17:36;;;;;;;0.50;0.50;;;;;;;8.17;70.10;94661.56;6100125;23;20171;-87
2024/04/16 06:20:22;;;;;;;0.50;0.50;;;;;;;7.90;70.63;94689.47;6099238;23;20793;-86
2024/04/16 06:22:57;;;;;;;0.60;0.60;;;;;;;7.89;70.94;94705.03;6099000;23;20251;-87
2024/04/16 06:25:30;;;;;;;0.60;0.60;;;;;;;8.00;71.11;94725.09;6100117;23;20221;-86
2024/04/16 06:27:55;;;;;;;0.80;0.73;;;;;;;8.01;71.00;94705.38;6101313;23;20394;-87
2024/04/16 06:30:52;;;;;;;1.07;0.50;;;;;;;8.00;70.95;94698.66;6098949;23;20180;-86
2024/04/16 06:33:28;;;;;;;1.07;0.60;;;;;;;7.98;70.84;94699.63;6037799;23;20381;-86
2024/04/16 06:36:12;;;;;;;0.77;0.70;;;;;;;8.08;70.74;94694.19;6087808;23;20176;-88
2024/04/16 06:38:37;;;;;;;0.67;0.57;;;;;;;7.96;70.37;94695.66;6099335;23;20562;-86
2024/04/16 06:41:10;;;;;;;0.50;0.50;;;;;;;8.08;70.97;94716.50;6098954;23;20177;-85
2024/04/16 06:43:45;;;;;;;0.57;0.50;;;;;;;8.15;70.24;94692.50;6097692;23;20279;-86
2024/04/16 06:46:22;;;;;;;0.77;0.77;;;;;;;8.23;69.98;94676.22;6099105;23;20165;-86
2024/04/16 06:49:15;;;;;;;0.50;0.50;;;;;;;8.25;69.80;94675.03;6099333;23;20243;-87
2024/04/16 06:51:49;;;;;;;0.60;0.60;;;;;;;8.35;69.89;94692.69;6099160;23;20184;-86
2024/04/16 06:54:20;;;;;;;1.50;0.80;;;;;;;8.40;70.00;94692.16;6098565;23;20252;-85
2024/04/16 06:56:58;;;;;;;0.60;0.60;;;;;;;8.22;69.66;94667.72;6098648;23;20164;-86
2024/04/16 06:59:43;;;;;;;0.50;0.50;;;;;;;8.38;70.62;94701.81;6099377;23;20164;-87
2024/04/16 07:02:17;;;;;;;0.47;0.47;;;;;;;8.69;70.44;94699.66;6099554;23;20160;-85
2024/04/16 07:05:24;;;;;;;1.20;0.60;;;;;;;8.77;69.42;94675.66;6100478;23;20452;-86
2024/04/16 07:11:28;;;;;;;;;;;;;;;;;;;;;
2024/04/16 07:13:55;;;;;;;0.50;0.50;;;;;;;8.81;69.93;94685.38;6114613;23;20210;-87
2024/04/16 07:26:56;;;;;;;0.50;0.50;;;;;;;9.21;67.54;94593.16;5897959;24;20226;-86
2024/04/16 07:29:36;;;;;;;0.63;0.60;;;;;;;9.12;66.23;94546.28;5906365;24;20194;-87
2024/04/16 07:35:47;;;;;;;0.60;0.50;;;;;;;9.19;67.05;94577.94;5942874;24;20255;-88
2024/04/16 07:38:58;;;;;;;1.33;0.73;;;;;;;9.07;65.81;94535.81;5949952;24;20227;-85
2024/04/16 07:51:40;;;;;;;1.57;0.80;;;;;;;8.10;71.42;94745.28;5980608;23;20245;-88
2024/04/16 07:57:55;;;;;;;1.20;0.73;;;;;;;7.97;71.16;94728.81;6079409;23;20278;-87
2024/04/16 08:00:44;;;;;;;1.57;0.70;;;;;;;7.92;70.94;94704.69;6129855;23;20179;-86
2024/04/16 08:06:11;;;;;;;2.03;0.80;;;;;;;8.11;70.03;94688.69;6123290;23;20214;-88
2024/04/16 08:18:57;;;;;;;1.57;0.70;;;;;;;9.09;68.36;94638.31;5705905;24;20192;-86
2024/04/16 08:22:00;;;;;;;0.80;0.73;;;;;;;9.34;66.20;94559.78;5867726;24;20245;-87
2024/04/16 08:31:58;;;;;;;1.03;0.73;;;;;;;11.06;61.26;94351.88;5778205;23;20188;-88
2024/04/16 08:34:35;;;;;;;1.17;0.80;;;;;;;11.09;60.93;94312.81;5975871;23;20290;-88
2024/04/16 08:38:09;;;;;;;1.20;1.00;;;;;;;11.24;60.45;94271.28;6003592;23;20182;-87
2024/04/16 08:44:18;;;;;;;1.93;1.00;;;;;;;11.94;59.70;94271.75;5810475;24;20198;-87
2024/04/16 08:46:52;;;;;;;1.97;1.00;;;;;;;12.67;57.61;94194.13;5940256;24;20190;-87
2024/04/16 08:53:10;;;;;;;2.70;0.80;;;;;;;12.04;56.40;94055.34;6076879;23;20206;-88
2024/04/16 09:06:37;;;;;;;;;;;;;;;;;;;;;
2024/04/16 09:09:42;;;;;;;1.40;0.80;;;;;;;11.39;51.08;93793.25;6159044;23;20175;-89
2024/04/16 09:16:50;;;;;;;;;;;;;;;;;;;;;
2024/04/16 09:37:01;;;;;;;3.37;1.23;;;;;;;12.35;50.35;93815.03;5997988;23;20182;-87
2024/04/16 09:40:15;;;;;;;;;;;;;;;;;;;;;
2024/04/16 09:50:29;;;;;;;2.37;0.90;;;;;;;11.66;49.79;93754.09;6038505;23;20177;-87
2024/04/16 09:57:46;;;;;;;1.30;1.00;;;;;;;11.46;47.85;93609.41;5953760;24;20255;-86
2024/04/16 09:59:43;;;;;;;2.63;0.90;;;;;;;10.34;50.37;93699.72;5910899;24;20183;-86
2024/04/16 10:06:30;;;;;;;3.07;1.40;;;;;;;11.32;48.41;93657.84;6020458;23;20717;-85
2024/04/16 10:10:01;;;;;;;3.30;1.20;;;;;;;11.88;47.33;93587.50;6033175;23;20185;-87
2024/04/16 10:23:26;;;;;;;3.47;1.23;;;;;;;11.30;47.12;93518.97;6032135;23;20226;-86
2024/04/16 10:30:54;;;;;;;2.33;1.20;;;;;;;11.66;46.74;93527.28;5979987;24;20201;-86
2024/04/16 10:33:23;;;;;;;;;;;;;;;;;;;;;
2024/04/16 11:47:32;;;;;;;4.17;1.10;;;;;;;11.89;43.82;93302.06;5063516;28;20247;-87
2024/04/16 12:04:11;;;;;;;3.00;1.20;;;;;;;12.06;44.24;93310.53;4973048;28;20271;-85
2024/04/16 12:06:37;;;;;;;2.30;1.10;;;;;;;12.10;44.16;93309.03;5033408;28;20208;-87
2024/04/16 12:18:49;;;;;;;2.30;1.00;;;;;;;12.60;44.21;93297.63;5135529;27;20234;-86
2024/04/16 12:22:24;;;;;;;;;;;;;;;;;;;;;
2024/04/16 12:24:52;;;;;;;2.27;1.10;;;;;;;12.64;42.80;93192.88;5126003;27;20223;-87
2024/04/16 13:05:46;;;;;;;1.90;0.90;;;;;;;13.71;41.18;93026.94;5056493;22;20224;-87
2024/04/16 13:09:10;;;;;;;2.07;0.90;;;;;;;13.78;41.24;93032.63;5016060;28;20266;-86
2024/04/16 13:28:47;;;;;;;2.10;0.93;;;;;;;12.80;42.55;93086.09;4916818;29;20345;-86
2024/04/16 13:32:19;;;;;;;4.43;0.90;;;;;;;13.07;42.14;93070.47;5071905;28;20350;-86
2024/04/16 13:34:58;;;;;;;;;;;;;;;;;;;;;
2024/04/16 14:01:05;;;;;;;2.10;1.00;;;;;;;13.98;39.61;92923.22;5023307;28;20220;-87
2024/04/16 14:10:58;;;;;;;;;;;;;;;;;;;;;
2024/04/16 14:27:54;;;;;;;;;;;;;;;;;;;;;
2024/04/16 14:34:24;;;;;;;;;;;;;;;;;;;;;
2024/04/16 14:37:26;;;;;;;3.20;1.00;;;;;;;13.73;39.81;92910.31;5014329;28;20611;-87
2024/04/16 14:43:57;;;;;;;3.03;1.10;;;;;;;13.75;39.95;92911.63;5054326;28;20189;-86
2024/04/16 14:56:47;;;;;;;3.17;0.77;;;;;;;13.23;40.97;92937.75;4995584;28;20923;-86
2024/04/16 14:59:56;;;;;;;3.27;0.73;;;;;;;13.10;40.92;92941.56;4984176;28;20214;-86
2024/04/16 15:02:43;;;;;;;1.43;0.70;;;;;;;13.16;41.64;92980.34;5054026;28;20225;-86
2024/04/16 15:06:54;;;;;;;0.87;0.70;;;;;;;13.02;41.60;92980.81;5061756;28;20232;-87
2024/04/16 15:11:54;;;;;;;1.97;0.90;;;;;;;13.09;41.17;92972.81;5063289;28;20227;-86
2024/04/16 15:25:14;;;;;;;1.27;0.90;;;;;;;12.66;42.52;93046.28;4921932;29;20222;-90
2024/04/16 15:27:50;;;;;;;1.37;0.80;;;;;;;12.79;42.96;93054.34;4992288;28;20272;-87
2024/04/16 15:30:52;;;;;;;;;;;;;;;;;;;;;
2024/04/16 15:44:18;;;;;;;2.57;0.87;;;;;;;12.69;41.74;93018.16;4991050;28;20211;-86
2024/04/16 15:50:41;;;;;;;1.63;0.67;;;;;;;12.28;41.81;92993.97;5021679;28;20205;-86
2024/04/16 15:53:49;;;;;;;3.77;1.00;;;;;;;12.26;41.93;93001.19;5043989;28;20197;-87
2024/04/16 16:42:43;;;;;;;2.47;0.90;;;;;;;11.90;45.37;93224.50;4921616;29;20705;-87
2024/04/16 16:46:03;;;;;;;2.53;0.90;;;;;;;11.81;45.21;93204.53;4924721;29;20234;-88
2024/04/16 17:06:55;;;;;;;2.77;1.33;;;;;;;11.84;46.97;93295.06;4904272;29;20631;-86
2024/04/16 17:13:44;;;;;;;;;;;;;;;;;;;;;
2024/04/16 17:59:58;;;;;;;0.87;0.70;;;;;;;11.40;47.65;93380.00;5016833;28;20576;-86
2024/04/16 18:02:38;;;;;;;2.53;0.77;;;;;;;11.33;47.92;93399.22;5017306;28;20283;-86
2024/04/16 18:56:00;;;;;;;1.43;1.10;;;;;;;11.08;49.22;93507.75;4712326;30;20298;-87
2024/04/16 21:22:30;;;;;;;2.63;0.77;;;;;;;9.59;59.84;94070.09;4990073;28;20264;-86
2024/04/16 21:25:37;;;;;;;1.03;0.70;;;;;;;9.57;60.35;94073.84;5014741;28;20215;-86
2024/04/16 22:01:55;;;;;;;1.13;0.60;;;;;;;9.18;62.95;94188.59;6221762;23;20263;-87
2024/04/16 22:04:59;;;;;;;1.23;0.87;;;;;;;9.23;62.85;94173.41;6222077;23;20231;-86
2024/04/16 22:15:07;;;;;;;;;;;;;;;;;;;;;
2024/04/16 22:25:38;;;;;;;1.40;0.80;;;;;;;9.37;62.70;94199.81;6180834;23;20213;-87
2024/04/16 22:28:41;;;;;;;0.53;0.53;;;;;;;9.29;62.74;94203.38;6020253;23;20182;-87
2024/04/16 22:31:22;;;;;;;0.87;0.57;;;;;;;9.38;62.83;94213.44;6206136;22;20199;-87
2024/04/16 22:38:32;;;;;;;0.50;0.50;;;;;;;9.38;62.72;94221.94;6177014;23;20181;-86
2024/04/16 22:41:32;;;;;;;1.27;0.60;;;;;;;9.48;62.64;94214.59;6172853;23;20630;-89
2024/04/16 22:44:55;;;;;;;;;;;;;;;;;;;;;
2024/04/16 23:08:49;;;;;;;0.70;0.67;;;;;;;9.38;63.27;94273.31;6135836;22;20176;-86
2024/04/16 23:12:11;;;;;;;;;;;;;;;;;;;;;
2024/04/16 23:39:14;;;;;;;1.00;0.80;;;;;;;9.40;62.59;94206.31;6038826;23;20260;-85
2024/04/16 23:42:33;;;;;;;1.17;0.80;;;;;;;9.37;62.89;94209.28;6065152;23;20173;-86
2024/04/16 23:59:19;;;;;;;0.70;0.70;;;;;;;9.09;63.65;94220.63;6088645;23;20655;-87
